Time;durP1;ratioP1;P1;durP2;ratioP2;P2;SDS_P1;SDS_P2;PMS_P1;PMS_P2;Temp;Humidity;BMP_temperature;BMP_pressure;BME280_temperature;BME280_humidity;BME280_pressure;Samples;Min_cycle;Max_cycle;Signal;HPM_P1;HPM_P2
2022/01/19 00:01:40;;;;;;;10.20;8.90;;;4.10;99.90;;;;;;5053162;28;20425;-58
2022/01/19 00:04:06;;;;;;;9.77;8.20;;;4.00;99.90;;;;;;5054430;28;20167;-58
2022/01/19 00:06:32;;;;;;;11.63;8.80;;;4.00;99.90;;;;;;5054062;28;20191;-60
2022/01/19 00:08:58;;;;;;;10.30;8.13;;;4.00;99.90;;;;;;5054351;28;20409;-60
2022/01/19 00:11:23;;;;;;;9.30;7.70;;;3.90;99.90;;;;;;5053797;28;20224;-60
2022/01/19 00:13:50;;;;;;;9.97;8.00;;;3.90;99.90;;;;;;5053638;28;20284;-60
2022/01/19 00:16:17;;;;;;;12.10;8.77;;;3.80;99.90;;;;;;5053028;28;20186;-59
2022/01/19 00:18:43;;;;;;;11.90;9.80;;;3.80;99.90;;;;;;5053561;28;20456;-59
2022/01/19 00:21:08;;;;;;;15.63;10.03;;;3.70;99.90;;;;;;5053675;28;20410;-59
2022/01/19 00:23:34;;;;;;;13.47;10.40;;;3.60;99.90;;;;;;5053743;28;20163;-57
2022/01/19 00:26:00;;;;;;;10.90;9.53;;;3.60;99.90;;;;;;5053779;28;20186;-57
2022/01/19 00:28:26;;;;;;;13.90;9.97;;;3.50;99.90;;;;;;5053871;28;20612;-60
2022/01/19 00:30:52;;;;;;;12.70;10.10;;;3.50;99.90;;;;;;5053050;28;20173;-58
2022/01/19 00:33:19;;;;;;;15.23;11.80;;;3.40;99.90;;;;;;5053451;28;20401;-59
2022/01/19 00:35:45;;;;;;;12.47;9.67;;;3.40;99.90;;;;;;5053264;28;20617;-60
2022/01/19 00:38:10;;;;;;;11.63;9.67;;;3.40;99.90;;;;;;5053219;28;20437;-60
2022/01/19 00:40:38;;;;;;;11.33;8.80;;;3.40;99.90;;;;;;5053206;28;20813;-59
2022/01/19 00:43:04;;;;;;;18.83;11.30;;;3.40;99.90;;;;;;5053801;28;20166;-59
2022/01/19 00:45:29;;;;;;;10.37;9.30;;;3.40;99.90;;;;;;5052869;28;20502;-59
2022/01/19 00:47:55;;;;;;;13.23;11.73;;;3.30;99.90;;;;;;5052936;28;20166;-60
2022/01/19 00:50:25;;;;;;;15.57;11.30;;;3.30;99.90;;;;;;5053207;28;20167;-59
2022/01/19 00:52:52;;;;;;;15.00;11.30;;;3.30;99.90;;;;;;5052095;28;20580;-58
2022/01/19 00:55:19;;;;;;;12.30;11.00;;;3.30;99.90;;;;;;5053063;28;20482;-59
2022/01/19 00:57:45;;;;;;;17.23;12.20;;;3.30;99.90;;;;;;5053544;28;20416;-59
2022/01/19 01:00:15;;;;;;;17.83;13.00;;;3.20;99.90;;;;;;5053035;28;20535;-59
2022/01/19 01:02:41;;;;;;;17.73;13.03;;;3.20;99.90;;;;;;5052977;28;20830;-59
2022/01/19 01:05:07;;;;;;;13.73;11.47;;;3.20;99.90;;;;;;5053063;28;20464;-60
2022/01/19 01:07:34;;;;;;;15.40;12.60;;;3.10;99.90;;;;;;5052885;28;20171;-59
2022/01/19 01:10:00;;;;;;;12.37;11.03;;;3.20;99.90;;;;;;5053604;28;20925;-59
2022/01/19 01:12:42;;;;;;;12.67;9.63;;;3.10;99.90;;;;;;5052434;28;20421;-59
2022/01/19 01:20:31;;;;;;;13.57;11.47;;;3.10;99.90;;;;;;5052906;28;20454;-58
2022/01/19 01:22:57;;;;;;;11.77;10.53;;;3.10;99.90;;;;;;5052885;28;20411;-60
2022/01/19 01:25:23;;;;;;;13.80;10.73;;;3.10;99.90;;;;;;5052851;28;20428;-59
2022/01/19 01:27:48;;;;;;;12.90;11.53;;;3.10;99.90;;;;;;5052345;28;20227;-60
2022/01/19 01:30:14;;;;;;;20.87;12.03;;;3.10;99.90;;;;;;5038840;28;20628;-58
2022/01/19 01:32:40;;;;;;;14.83;12.30;;;3.10;99.90;;;;;;5056693;28;20624;-60
2022/01/19 01:35:06;;;;;;;18.47;12.03;;;3.00;99.90;;;;;;5056832;28;20203;-58
2022/01/19 01:37:32;;;;;;;22.23;12.87;;;3.00;99.90;;;;;;5056566;28;20175;-60
2022/01/19 01:39:58;;;;;;;14.80;11.20;;;2.90;99.90;;;;;;5056556;28;20449;-59
2022/01/19 01:42:24;;;;;;;16.37;12.30;;;2.80;99.90;;;;;;5056506;28;20178;-59
2022/01/19 01:44:51;;;;;;;15.20;13.60;;;2.70;99.90;;;;;;5078384;22;20249;-54
2022/01/19 01:47:18;;;;;;;16.30;12.20;;;2.70;99.90;;;;;;5015326;28;20486;-55
2022/01/19 01:55:14;;;;;;;18.83;15.17;;;2.80;99.90;;;;;;5016828;28;20942;-57
2022/01/19 01:57:40;;;;;;;17.00;13.00;;;2.80;99.90;;;;;;5016608;28;20410;-54
2022/01/19 02:00:09;;;;;;;19.20;12.90;;;2.80;99.90;;;;;;5015825;28;20540;-58
2022/01/19 02:02:36;;;;;;;17.20;12.03;;;2.80;99.90;;;;;;5015894;28;20415;-57
2022/01/19 02:05:03;;;;;;;18.03;13.93;;;2.80;99.90;;;;;;4987454;28;20915;-58
2022/01/19 02:10:14;;;;;;;18.80;14.00;;;2.70;99.90;;;;;;4996457;28;20390;-58
2022/01/19 02:23:44;;;;;;;12.50;11.17;;;2.80;99.90;;;;;;5016364;28;20876;-56
2022/01/19 02:26:16;;;;;;;16.87;13.70;;;2.90;99.90;;;;;;5015644;28;20427;-54
2022/01/19 02:40:11;;;;;;;17.07;13.73;;;3.00;99.90;;;;;;5015023;28;20461;-58
2022/01/19 02:42:52;;;;;;;16.83;14.07;;;3.00;99.90;;;;;;5015830;28;20427;-56
2022/01/19 02:50:30;;;;;;;17.00;14.80;;;3.00;99.90;;;;;;5015660;28;20389;-58
2022/01/19 02:52:56;;;;;;;21.27;13.07;;;3.10;99.90;;;;;;5015525;28;20410;-58
2022/01/19 02:55:22;;;;;;;13.73;11.50;;;3.00;99.90;;;;;;5015431;28;20502;-58
2022/01/19 02:57:49;;;;;;;14.17;11.63;;;3.10;99.90;;;;;;5015454;28;20598;-55
2022/01/19 03:08:47;;;;;;;18.10;12.33;;;3.00;99.90;;;;;;5015279;28;20382;-57
2022/01/19 03:11:18;;;;;;;13.97;12.30;;;2.90;99.90;;;;;;5015020;28;20489;-55
2022/01/19 03:13:45;;;;;;;14.90;12.03;;;2.80;99.90;;;;;;5014880;28;20395;-59
2022/01/19 03:16:12;;;;;;;17.20;13.23;;;2.80;99.90;;;;;;5014427;28;20477;-54
2022/01/19 03:18:38;;;;;;;14.60;11.63;;;2.70;99.90;;;;;;5015028;28;20403;-54
2022/01/19 03:21:04;;;;;;;13.20;11.80;;;2.70;99.90;;;;;;5015098;28;20430;-55
2022/01/19 03:23:30;;;;;;;14.93;12.77;;;2.70;99.90;;;;;;5014665;28;20183;-52
2022/01/19 03:25:57;;;;;;;16.80;12.23;;;2.70;99.90;;;;;;5014603;28;20419;-56
2022/01/19 03:28:23;;;;;;;18.10;14.10;;;2.70;99.90;;;;;;5014872;28;20171;-56
2022/01/19 03:30:49;;;;;;;14.87;11.37;;;2.70;99.90;;;;;;5001115;28;20919;-55
2022/01/19 03:33:15;;;;;;;16.47;11.87;;;2.70;99.90;;;;;;4994852;28;20585;-59
2022/01/19 03:35:41;;;;;;;17.30;13.20;;;2.70;99.90;;;;;;4995022;28;20227;-58
2022/01/19 03:38:09;;;;;;;14.57;11.13;;;2.50;99.90;;;;;;4995115;28;20415;-55
2022/01/19 03:40:35;;;;;;;14.80;12.13;;;2.30;99.90;;;;;;4994895;28;20196;-58
2022/01/19 03:43:03;;;;;;;18.17;13.27;;;2.40;99.90;;;;;;4994812;28;20400;-55
2022/01/19 03:45:32;;;;;;;14.93;11.80;;;2.50;99.90;;;;;;4997100;28;20876;-58
2022/01/19 03:50:41;;;;;;;16.80;12.50;;;2.50;99.90;;;;;;5014033;28;20394;-53
2022/01/19 03:53:07;;;;;;;13.37;11.90;;;2.40;99.90;;;;;;5014480;28;20415;-58
2022/01/19 03:55:32;;;;;;;15.47;12.37;;;2.30;99.90;;;;;;5014285;28;20604;-55
2022/01/19 03:57:58;;;;;;;13.80;11.50;;;2.30;99.90;;;;;;5014310;28;20286;-54
2022/01/19 04:00:24;;;;;;;14.57;11.77;;;2.20;99.90;;;;;;5013918;28;20559;-57
2022/01/19 04:02:49;;;;;;;15.80;13.50;;;2.10;99.90;;;;;;5013708;28;20205;-56
2022/01/19 04:05:26;;;;;;;15.03;12.40;;;2.10;99.90;;;;;;5013974;28;20734;-55
2022/01/19 04:07:52;;;;;;;21.43;14.30;;;2.00;99.90;;;;;;5014215;28;20160;-51
2022/01/19 04:10:17;;;;;;;19.50;14.13;;;2.10;99.90;;;;;;5013926;28;20423;-53
2022/01/19 04:12:47;;;;;;;20.03;13.80;;;2.10;99.90;;;;;;5014260;28;20215;-58
2022/01/19 04:15:16;;;;;;;19.90;13.40;;;2.10;99.90;;;;;;5014381;28;20218;-57
2022/01/19 04:17:51;;;;;;;20.73;15.10;;;2.20;99.90;;;;;;5014152;28;20415;-56
2022/01/19 04:20:17;;;;;;;18.33;14.30;;;2.30;99.90;;;;;;5012695;28;20528;-58
2022/01/19 04:22:43;;;;;;;16.23;13.60;;;2.30;99.90;;;;;;5013713;28;20403;-56
2022/01/19 04:25:09;;;;;;;19.27;14.90;;;2.30;99.90;;;;;;5013954;28;20449;-56
2022/01/19 04:27:34;;;;;;;17.63;14.00;;;2.30;99.90;;;;;;5013686;28;20406;-57
2022/01/19 04:30:11;;;;;;;18.40;15.10;;;2.30;99.90;;;;;;5013678;28;20206;-59
2022/01/19 04:35:16;;;;;;;18.17;13.70;;;2.30;99.90;;;;;;5013864;28;20514;-58
2022/01/19 04:48:38;;;;;;;21.40;13.87;;;2.10;99.90;;;;;;5013737;28;20410;-58
2022/01/19 05:10:04;;;;;;;26.60;16.20;;;2.00;99.90;;;;;;5020209;28;20405;-58
2022/01/19 05:15:14;;;;;;;18.67;15.30;;;1.90;99.90;;;;;;5019656;28;20993;-59
2022/01/19 05:17:41;;;;;;;18.83;16.20;;;1.90;99.90;;;;;;5019793;28;20413;-57
2022/01/19 05:20:09;;;;;;;22.97;16.70;;;1.90;99.90;;;;;;5019876;28;20187;-54
2022/01/19 05:22:35;;;;;;;22.13;17.07;;;1.80;99.90;;;;;;5018465;28;20422;-56
2022/01/19 05:25:02;;;;;;;20.80;15.27;;;1.90;99.90;;;;;;5019363;28;20434;-56
2022/01/19 05:27:28;;;;;;;22.83;18.00;;;1.90;99.90;;;;;;5019845;28;20760;-56
2022/01/19 05:29:54;;;;;;;21.93;16.70;;;1.80;99.90;;;;;;5014502;28;20430;-57
2022/01/19 05:32:19;;;;;;;24.07;17.67;;;1.90;99.90;;;;;;4993225;28;20644;-56
2022/01/19 05:34:45;;;;;;;21.07;16.30;;;1.80;99.90;;;;;;4998681;28;20173;-53
2022/01/19 05:37:11;;;;;;;23.33;16.47;;;1.80;99.90;;;;;;4995733;28;20260;-57
2022/01/19 05:39:36;;;;;;;19.77;15.50;;;1.70;99.90;;;;;;4999912;28;20459;-57
2022/01/19 05:42:02;;;;;;;23.37;16.67;;;1.70;99.90;;;;;;4999709;28;20176;-56
2022/01/19 05:44:28;;;;;;;19.80;15.57;;;1.70;99.90;;;;;;4999629;28;20282;-57
2022/01/19 05:46:54;;;;;;;21.73;15.80;;;1.80;99.90;;;;;;4999425;28;20534;-52
2022/01/19 05:49:19;;;;;;;21.97;15.80;;;1.80;99.90;;;;;;4999579;28;20313;-53
2022/01/19 05:51:47;;;;;;;19.77;14.57;;;1.80;99.90;;;;;;5002027;28;20180;-51
2022/01/19 05:54:13;;;;;;;19.17;16.13;;;1.80;99.90;;;;;;5019233;28;20175;-56
2022/01/19 05:56:38;;;;;;;21.23;15.47;;;1.70;99.90;;;;;;5018991;28;20442;-56
2022/01/19 05:59:04;;;;;;;20.90;15.07;;;1.70;99.90;;;;;;5019103;28;20195;-53
2022/01/19 06:01:30;;;;;;;21.30;16.27;;;1.80;99.90;;;;;;5019477;28;20179;-54
2022/01/19 06:03:55;;;;;;;23.63;14.10;;;1.70;99.90;;;;;;5019124;28;20170;-55
2022/01/19 06:06:21;;;;;;;24.00;18.40;;;1.70;99.90;;;;;;5019153;28;20195;-56
2022/01/19 06:08:58;;;;;;;23.10;15.50;;;1.70;99.90;;;;;;5019440;28;20539;-59
2022/01/19 06:11:24;;;;;;;21.13;15.70;;;1.70;99.90;;;;;;5019146;28;20651;-58
2022/01/19 06:13:50;;;;;;;17.93;14.20;;;1.70;99.90;;;;;;5016033;28;20462;-58
2022/01/19 06:16:15;;;;;;;25.77;16.80;;;1.60;99.90;;;;;;5015814;28;20193;-58
2022/01/19 06:18:42;;;;;;;28.43;17.37;;;1.60;99.90;;;;;;5016098;28;20663;-56
2022/01/19 06:21:09;;;;;;;31.80;20.10;;;1.70;99.90;;;;;;5016121;28;20168;-56
2022/01/19 06:23:36;;;;;;;26.00;18.87;;;1.70;99.90;;;;;;5015290;28;20410;-57
2022/01/19 06:26:04;;;;;;;32.00;22.63;;;1.70;99.90;;;;;;5015445;28;20422;-53
2022/01/19 06:28:30;;;;;;;34.60;24.30;;;1.70;99.90;;;;;;5015555;28;20403;-56
2022/01/19 06:30:56;;;;;;;32.80;23.23;;;1.80;99.90;;;;;;5015783;28;20421;-56
2022/01/19 06:33:21;;;;;;;30.97;19.27;;;1.80;99.90;;;;;;5015580;28;20644;-57
2022/01/19 06:35:47;;;;;;;18.20;15.60;;;1.90;99.90;;;;;;5015515;28;20196;-58
2022/01/19 06:38:12;;;;;;;27.60;21.60;;;1.90;99.90;;;;;;5015227;28;20172;-54
2022/01/19 06:40:38;;;;;;;20.63;15.40;;;1.90;99.90;;;;;;5015508;28;20196;-54
2022/01/19 06:43:04;;;;;;;19.43;16.10;;;2.20;99.90;;;;;;5015497;28;20171;-53
2022/01/19 06:45:30;;;;;;;21.67;16.37;;;2.30;99.90;;;;;;5015355;28;20632;-57
2022/01/19 06:47:55;;;;;;;22.80;15.83;;;2.30;99.90;;;;;;5015181;28;20486;-55
2022/01/19 06:50:23;;;;;;;20.50;15.67;;;2.40;99.90;;;;;;5015582;28;20183;-58
2022/01/19 06:52:49;;;;;;;21.77;14.63;;;2.40;99.90;;;;;;4997458;28;20187;-55
2022/01/19 06:55:15;;;;;;;18.57;14.70;;;2.40;99.90;;;;;;5015227;28;20422;-51
2022/01/19 06:57:41;;;;;;;16.40;13.90;;;2.40;99.90;;;;;;5015446;28;20811;-52
2022/01/19 07:00:07;;;;;;;18.43;14.70;;;2.40;99.90;;;;;;5015157;28;20450;-56
2022/01/19 07:02:33;;;;;;;19.90;14.93;;;2.40;99.90;;;;;;5015103;28;20168;-52
2022/01/19 07:05:00;;;;;;;20.60;15.70;;;2.30;99.90;;;;;;5014973;28;20411;-52
2022/01/19 07:07:25;;;;;;;25.83;17.60;;;2.30;99.90;;;;;;5014984;28;20172;-57
2022/01/19 07:09:51;;;;;;;19.00;14.70;;;2.20;99.90;;;;;;5015045;28;20775;-57
2022/01/19 07:12:17;;;;;;;21.90;14.57;;;2.20;99.90;;;;;;5015067;28;20531;-54
2022/01/19 07:14:43;;;;;;;17.83;13.93;;;2.20;99.90;;;;;;5014865;28;20248;-57
2022/01/19 07:17:09;;;;;;;19.40;14.63;;;2.20;99.90;;;;;;5014946;28;20168;-54
2022/01/19 07:19:35;;;;;;;22.53;15.80;;;2.10;99.90;;;;;;5014900;28;20538;-57
2022/01/19 07:22:00;;;;;;;16.57;13.73;;;2.10;99.90;;;;;;5014506;28;20504;-54
2022/01/19 07:24:26;;;;;;;17.60;14.20;;;2.10;99.90;;;;;;5013938;28;20411;-58
2022/01/19 07:26:52;;;;;;;21.67;16.10;;;2.10;99.90;;;;;;5013511;28;20211;-52
2022/01/19 07:29:17;;;;;;;22.10;14.37;;;2.10;99.90;;;;;;5014980;28;20226;-52
2022/01/19 07:31:43;;;;;;;22.23;14.70;;;2.00;99.90;;;;;;5014827;28;20200;-57
2022/01/19 07:34:09;;;;;;;18.60;15.60;;;1.90;99.90;;;;;;5016081;28;20183;-57
2022/01/19 07:36:36;;;;;;;22.80;16.13;;;1.80;99.90;;;;;;5016054;28;20597;-57
2022/01/19 07:39:02;;;;;;;23.10;17.03;;;1.80;99.90;;;;;;5014726;28;20959;-57
2022/01/19 07:41:27;;;;;;;18.73;15.80;;;1.80;99.90;;;;;;5015175;28;20407;-55
2022/01/19 07:43:53;;;;;;;18.93;14.77;;;1.90;99.90;;;;;;5013232;28;20497;-55
2022/01/19 07:46:19;;;;;;;21.43;15.40;;;2.00;99.90;;;;;;5036881;22;20219;-60
2022/01/19 07:48:44;;;;;;;16.00;13.50;;;2.00;99.90;;;;;;5033660;28;20401;-58
2022/01/19 07:51:10;;;;;;;24.90;16.43;;;1.90;99.90;;;;;;5033626;28;20165;-60
2022/01/19 07:53:36;;;;;;;19.50;13.80;;;2.00;99.90;;;;;;5034110;28;20412;-58
2022/01/19 07:56:05;;;;;;;18.40;15.17;;;2.00;99.90;;;;;;5040693;28;20194;-61
2022/01/19 07:58:31;;;;;;;20.03;14.30;;;2.10;99.90;;;;;;5053637;28;20389;-60
2022/01/19 08:00:57;;;;;;;19.40;14.37;;;2.20;99.90;;;;;;5053367;28;20591;-59
2022/01/19 08:03:22;;;;;;;17.03;13.90;;;2.30;99.90;;;;;;5053678;28;20268;-61
2022/01/19 08:05:48;;;;;;;20.07;15.27;;;2.30;99.90;;;;;;5053633;28;20685;-61
2022/01/19 08:08:15;;;;;;;19.47;15.50;;;2.30;99.90;;;;;;5053350;28;20163;-60
2022/01/19 08:10:42;;;;;;;20.73;15.27;;;2.40;99.90;;;;;;5053716;28;20397;-57
2022/01/19 08:13:09;;;;;;;20.63;17.60;;;2.30;99.90;;;;;;5052663;28;20408;-59
2022/01/19 08:15:34;;;;;;;19.67;15.10;;;2.40;99.90;;;;;;5052752;28;20421;-61
2022/01/19 08:18:00;;;;;;;24.37;18.10;;;2.40;99.90;;;;;;5053814;28;20413;-60
2022/01/19 08:20:26;;;;;;;20.33;17.50;;;2.40;99.90;;;;;;5053408;28;20205;-58
2022/01/19 08:22:51;;;;;;;19.83;15.07;;;2.50;99.90;;;;;;5053070;28;20170;-60
2022/01/19 08:25:17;;;;;;;19.80;15.50;;;2.50;99.90;;;;;;5053095;28;20159;-57
2022/01/19 08:27:43;;;;;;;23.40;17.37;;;2.60;99.90;;;;;;5053809;28;20163;-61
2022/01/19 08:30:10;;;;;;;21.37;15.57;;;2.70;99.90;;;;;;5053142;28;20170;-61
2022/01/19 08:32:36;;;;;;;20.07;16.40;;;2.80;99.90;;;;;;5052966;28;20175;-59
2022/01/19 08:35:04;;;;;;;19.83;15.60;;;2.90;99.90;;;;;;5053174;28;20898;-59
2022/01/19 08:37:29;;;;;;;19.33;16.53;;;3.10;99.90;;;;;;5052936;28;20190;-59
2022/01/19 08:39:55;;;;;;;20.73;16.10;;;3.20;99.90;;;;;;5053408;28;20441;-59
2022/01/19 08:42:21;;;;;;;19.50;16.87;;;3.00;99.90;;;;;;5052922;28;20170;-58
2022/01/19 08:44:47;;;;;;;25.70;18.70;;;3.10;99.90;;;;;;5053250;28;20627;-60
2022/01/19 08:47:12;;;;;;;19.97;16.93;;;3.10;99.90;;;;;;5052658;28;20508;-59
2022/01/19 08:49:38;;;;;;;21.60;17.90;;;3.10;99.90;;;;;;5052869;28;20217;-59
2022/01/19 08:52:04;;;;;;;19.93;16.20;;;3.10;99.90;;;;;;5053467;28;20526;-60
2022/01/19 08:54:30;;;;;;;21.83;15.63;;;3.20;99.90;;;;;;5052879;28;20166;-61
2022/01/19 08:56:56;;;;;;;19.33;16.50;;;3.30;99.90;;;;;;5052849;28;21013;-60
2022/01/19 08:59:22;;;;;;;20.90;16.70;;;3.40;99.90;;;;;;5052884;28;20200;-61
2022/01/19 09:01:47;;;;;;;19.67;15.23;;;3.60;99.90;;;;;;5052425;28;20500;-60
2022/01/19 09:04:13;;;;;;;21.33;17.80;;;3.70;99.90;;;;;;5052567;28;20171;-59
2022/01/19 09:06:39;;;;;;;18.17;16.23;;;3.80;99.90;;;;;;5052677;28;20186;-60
2022/01/19 09:09:04;;;;;;;21.50;16.53;;;3.90;99.90;;;;;;5052865;28;20682;-60
2022/01/19 09:11:30;;;;;;;17.30;14.40;;;4.00;99.90;;;;;;5052562;28;20159;-56
2022/01/19 09:13:55;;;;;;;18.30;16.20;;;4.00;99.90;;;;;;5052999;28;20556;-61
2022/01/19 09:16:21;;;;;;;20.27;16.47;;;4.10;99.90;;;;;;5052783;28;20202;-59
2022/01/19 09:18:47;;;;;;;18.10;15.57;;;4.20;99.90;;;;;;5052846;28;20639;-62
2022/01/19 09:21:13;;;;;;;18.60;16.60;;;4.30;99.90;;;;;;5052328;28;20257;-61
2022/01/19 09:23:38;;;;;;;21.77;16.10;;;4.20;99.90;;;;;;5052478;28;20221;-61
2022/01/19 09:26:04;;;;;;;20.70;15.03;;;4.30;99.90;;;;;;5052770;28;20191;-61
2022/01/19 09:28:30;;;;;;;20.13;15.30;;;4.40;99.90;;;;;;5052464;28;20163;-59
2022/01/19 09:31:01;;;;;;;18.27;14.50;;;4.50;99.90;;;;;;5052199;28;20480;-60
2022/01/19 09:33:30;;;;;;;20.10;15.90;;;4.40;99.90;;;;;;5052861;28;20151;-61
2022/01/19 09:38:25;;;;;;;18.97;14.43;;;4.50;99.90;;;;;;5052762;28;20405;-60
2022/01/19 09:40:51;;;;;;;22.87;16.13;;;4.50;99.90;;;;;;5052346;28;20484;-60
2022/01/19 09:43:21;;;;;;;20.20;16.90;;;4.60;99.90;;;;;;5049548;28;20914;-58
2022/01/19 09:45:50;;;;;;;19.47;15.57;;;4.70;99.90;;;;;;5052144;28;20445;-60
2022/01/19 09:48:16;;;;;;;17.97;16.07;;;4.80;99.90;;;;;;5053812;28;20393;-60
2022/01/19 09:50:42;;;;;;;17.83;16.00;;;4.70;99.90;;;;;;5056443;28;20897;-61
2022/01/19 09:53:09;;;;;;;15.90;14.20;;;4.80;99.90;;;;;;5056157;28;20261;-60
2022/01/19 09:55:38;;;;;;;19.07;15.40;;;4.90;99.90;;;;;;5056060;28;20428;-58
2022/01/19 09:58:04;;;;;;;17.60;15.10;;;5.00;99.90;;;;;;5056673;28;20439;-60
2022/01/19 10:00:30;;;;;;;16.77;15.07;;;5.10;99.90;;;;;;5056162;28;21006;-59
2022/01/19 10:03:19;;;;;;;17.30;14.80;;;5.00;99.90;;;;;;5055794;28;20488;-60
2022/01/19 10:05:59;;;;;;;18.03;14.90;;;4.90;99.90;;;;;;5055879;28;20606;-59
2022/01/19 10:08:33;;;;;;;17.37;15.53;;;4.90;99.90;;;;;;5056017;28;20377;-59
2022/01/19 10:11:05;;;;;;;20.80;16.77;;;5.10;99.90;;;;;;5055693;28;20453;-59
2022/01/19 10:19:14;;;;;;;18.27;15.77;;;5.20;99.90;;;;;;5056353;28;20980;-57
2022/01/19 10:22:05;;;;;;;17.33;13.60;;;5.30;99.90;;;;;;5055706;28;20406;-60
2022/01/19 10:24:36;;;;;;;18.20;14.93;;;5.30;99.90;;;;;;5055922;28;20378;-60
2022/01/19 10:27:18;;;;;;;16.20;13.63;;;5.40;99.90;;;;;;5055445;28;20417;-61
2022/01/19 10:29:44;;;;;;;16.67;14.60;;;5.40;99.90;;;;;;5055488;28;20953;-61
2022/01/19 10:32:10;;;;;;;17.17;14.37;;;5.50;99.90;;;;;;5055380;28;20405;-61
2022/01/19 10:34:35;;;;;;;17.97;15.00;;;5.80;99.90;;;;;;5055714;28;20404;-60
2022/01/19 10:37:02;;;;;;;14.87;12.73;;;6.00;99.90;;;;;;5055400;28;20251;-59
2022/01/19 10:39:45;;;;;;;17.73;14.37;;;6.20;99.90;;;;;;5055369;28;20201;-60
2022/01/19 10:42:15;;;;;;;18.83;13.50;;;6.40;99.90;;;;;;5055483;28;20796;-61
2022/01/19 10:44:47;;;;;;;15.20;12.80;;;6.50;99.90;;;;;;5055083;28;20397;-59
2022/01/19 10:47:12;;;;;;;13.57;12.17;;;6.60;99.90;;;;;;5054654;28;20472;-59
2022/01/19 10:49:47;;;;;;;13.33;12.03;;;6.70;99.90;;;;;;5055077;28;20429;-61
2022/01/19 10:52:34;;;;;;;15.93;12.30;;;6.70;99.90;;;;;;5055294;28;20178;-61
2022/01/19 10:55:02;;;;;;;16.67;13.43;;;6.50;99.90;;;;;;5055300;28;20398;-60
2022/01/19 10:57:30;;;;;;;15.70;12.73;;;6.60;99.90;;;;;;5054824;28;20429;-59
2022/01/19 11:00:26;;;;;;;18.63;12.90;;;6.70;99.90;;;;;;5054502;28;20552;-60
2022/01/19 11:02:54;;;;;;;15.50;11.33;;;6.60;99.90;;;;;;5054706;28;20388;-60
2022/01/19 11:05:45;;;;;;;16.37;12.97;;;6.70;99.90;;;;;;5054563;28;20403;-60
2022/01/19 11:08:12;;;;;;;15.43;11.67;;;6.80;99.90;;;;;;5054929;28;20406;-60
2022/01/19 11:10:38;;;;;;;14.20;10.93;;;7.10;99.90;;;;;;5054484;28;20770;-60
2022/01/19 11:13:06;;;;;;;12.07;10.83;;;7.90;99.90;;;;;;5054920;28;20415;-60
2022/01/19 11:15:32;;;;;;;13.30;11.43;;;9.90;99.90;;;;;;5054965;28;20762;-60
2022/01/19 11:17:58;;;;;;;10.93;9.87;;;11.60;99.90;;;;;;5054226;28;20427;-61
2022/01/19 11:20:24;;;;;;;13.23;10.00;;;13.90;98.20;;;;;;5054573;28;20445;-60
2022/01/19 11:23:15;;;;;;;12.10;10.80;;;15.50;94.00;;;;;;5054360;28;20908;-60
2022/01/19 11:26:04;;;;;;;11.67;10.30;;;14.40;92.80;;;;;;5054508;28;20923;-59
2022/01/19 11:28:38;;;;;;;14.37;12.17;;;14.90;92.50;;;;;;5054485;28;20396;-61
2022/01/19 11:31:10;;;;;;;13.70;12.27;;;15.10;92.10;;;;;;5053770;28;20424;-61
2022/01/19 11:33:51;;;;;;;26.33;18.17;;;15.70;91.50;;;;;;5054238;28;20386;-61
2022/01/19 11:36:21;;;;;;;14.40;12.90;;;15.50;90.70;;;;;;5053488;28;20456;-61
2022/01/19 11:39:13;;;;;;;14.33;12.87;;;14.90;90.70;;;;;;5053862;28;20965;-60
2022/01/19 11:41:40;;;;;;;17.47;14.03;;;14.70;91.20;;;;;;5046675;28;20421;-61
2022/01/19 11:44:09;;;;;;;14.73;13.23;;;13.90;91.90;;;;;;5034784;28;20410;-59
2022/01/19 11:46:43;;;;;;;15.50;13.90;;;13.50;92.90;;;;;;5044130;28;20444;-61
2022/01/19 11:49:12;;;;;;;16.10;13.70;;;13.60;92.60;;;;;;5054173;28;20798;-63
2022/01/19 11:51:44;;;;;;;16.37;14.70;;;13.50;92.40;;;;;;5053955;28;20409;-61
2022/01/19 11:54:18;;;;;;;16.93;14.30;;;12.40;94.00;;;;;;5053744;28;20421;-61
2022/01/19 11:56:59;;;;;;;18.97;14.93;;;12.80;93.90;;;;;;5053908;28;20421;-62
2022/01/19 11:59:45;;;;;;;15.40;13.40;;;13.20;93.40;;;;;;5053654;28;20448;-61
2022/01/19 12:02:26;;;;;;;17.70;13.57;;;14.00;92.10;;;;;;5039267;28;20420;-61
2022/01/19 12:05:10;;;;;;;15.20;13.60;;;14.40;91.40;;;;;;5053869;28;20414;-61
2022/01/19 12:07:41;;;;;;;13.80;12.40;;;13.70;92.00;;;;;;5053409;28;20905;-61
2022/01/19 12:10:14;;;;;;;16.60;14.60;;;14.10;91.60;;;;;;5053578;28;20851;-61
2022/01/19 12:12:54;;;;;;;19.13;13.87;;;14.30;90.70;;;;;;5053033;28;20472;-61
2022/01/19 12:15:58;;;;;;;16.13;13.80;;;13.80;91.50;;;;;;5053429;28;20408;-61
2022/01/19 12:18:41;;;;;;;14.90;13.40;;;13.60;92.00;;;;;;5053449;28;20493;-61
2022/01/19 12:21:12;;;;;;;15.80;13.47;;;13.50;92.50;;;;;;5053919;28;20442;-58
2022/01/19 12:23:39;;;;;;;15.13;13.53;;;13.70;92.40;;;;;;5053310;28;20898;-60
2022/01/19 12:26:10;;;;;;;18.60;13.53;;;13.20;92.60;;;;;;5053325;28;20473;-60
2022/01/19 12:28:47;;;;;;;13.60;12.20;;;12.60;93.30;;;;;;5053523;28;20827;-59
2022/01/19 12:31:25;;;;;;;14.30;11.80;;;12.20;93.70;;;;;;5052993;28;20826;-60
2022/01/19 12:34:03;;;;;;;14.00;12.37;;;11.60;94.70;;;;;;5054059;28;20496;-60
2022/01/19 12:36:55;;;;;;;13.90;12.37;;;11.20;95.50;;;;;;5053249;28;20802;-60
2022/01/19 12:39:26;;;;;;;16.67;13.97;;;11.20;95.90;;;;;;5053127;28;20451;-62
2022/01/19 12:42:38;;;;;;;14.20;12.03;;;11.70;95.40;;;;;;5052919;28;20429;-61
2022/01/19 12:45:18;;;;;;;15.00;11.90;;;11.70;94.80;;;;;;5045234;28;20412;-61
2022/01/19 12:47:45;;;;;;;14.87;11.90;;;12.90;94.10;;;;;;5052300;28;20440;-61
2022/01/19 12:50:11;;;;;;;13.70;12.00;;;14.10;92.10;;;;;;5052772;28;20413;-61
2022/01/19 12:52:47;;;;;;;13.47;11.97;;;13.70;92.20;;;;;;5053061;28;20411;-61
2022/01/19 12:55:15;;;;;;;12.80;11.47;;;12.60;93.10;;;;;;5053555;28;20166;-61
2022/01/19 12:57:41;;;;;;;14.20;12.70;;;11.20;95.00;;;;;;5052753;28;20555;-61
2022/01/19 13:00:13;;;;;;;13.17;11.60;;;9.90;97.10;;;;;;5052441;28;20569;-61
2022/01/19 13:02:39;;;;;;;12.67;10.43;;;9.60;98.50;;;;;;5052326;28;20463;-60
2022/01/19 13:05:14;;;;;;;14.77;11.43;;;9.70;98.50;;;;;;5053324;28;20817;-59
2022/01/19 13:07:45;;;;;;;12.33;10.77;;;9.60;98.90;;;;;;5053119;28;20173;-61
2022/01/19 13:12:55;;;;;;;13.77;10.70;;;9.40;99.70;;;;;;5052983;28;20393;-60
2022/01/19 13:15:21;;;;;;;13.53;11.33;;;9.60;99.60;;;;;;5052910;28;20431;-60
2022/01/19 13:17:49;;;;;;;14.30;11.43;;;9.30;99.80;;;;;;5052712;28;20509;-60
2022/01/19 13:20:21;;;;;;;14.47;11.90;;;9.20;99.90;;;;;;5052608;28;20453;-60
2022/01/19 13:22:49;;;;;;;11.20;10.00;;;9.20;99.90;;;;;;5055178;28;20412;-60
2022/01/19 13:25:25;;;;;;;14.83;10.83;;;9.20;99.90;;;;;;5056568;28;20401;-60
2022/01/19 13:27:55;;;;;;;11.93;10.47;;;9.20;99.90;;;;;;5057637;28;20390;-60
2022/01/19 13:30:21;;;;;;;13.90;10.97;;;9.20;99.90;;;;;;5056988;28;20399;-61
2022/01/19 13:32:47;;;;;;;13.30;11.50;;;9.30;99.90;;;;;;5056298;28;20405;-60
2022/01/19 13:35:14;;;;;;;13.30;10.93;;;9.40;99.90;;;;;;5056344;28;20548;-60
2022/01/19 13:37:54;;;;;;;14.00;10.93;;;9.30;99.90;;;;;;5056805;28;20412;-60
2022/01/19 13:40:22;;;;;;;14.40;11.10;;;9.00;99.90;;;;;;5056875;28;20837;-60
2022/01/19 13:42:51;;;;;;;13.27;10.83;;;8.60;99.90;;;;;;5056285;28;20885;-58
2022/01/19 13:45:48;;;;;;;11.67;10.47;;;8.60;99.90;;;;;;5053023;28;20450;-59
2022/01/19 13:50:42;;;;;;;12.70;10.20;;;8.80;99.90;;;;;;5036974;28;20410;-54
2022/01/19 13:53:09;;;;;;;11.73;10.40;;;9.00;99.90;;;;;;5036349;28;20500;-54
2022/01/19 13:55:35;;;;;;;13.67;10.87;;;9.10;99.90;;;;;;5036346;28;20501;-56
2022/01/19 13:58:12;;;;;;;10.47;9.33;;;9.20;99.90;;;;;;5037375;28;20433;-57
2022/01/19 14:00:54;;;;;;;11.60;8.97;;;9.20;99.90;;;;;;5036863;28;20457;-58
2022/01/19 14:03:22;;;;;;;15.00;10.97;;;9.30;99.90;;;;;;5020736;28;20424;-57
2022/01/19 14:05:54;;;;;;;11.17;9.40;;;9.30;99.90;;;;;;5038229;28;20457;-56
2022/01/19 14:08:33;;;;;;;15.23;10.17;;;9.30;99.90;;;;;;5037165;28;20425;-58
2022/01/19 14:11:00;;;;;;;10.73;9.40;;;9.40;99.90;;;;;;5036465;28;20406;-57
2022/01/19 14:13:34;;;;;;;11.20;9.27;;;9.40;99.90;;;;;;5036487;28;20402;-56
2022/01/19 14:16:26;;;;;;;11.23;10.13;;;9.50;99.90;;;;;;5036453;28;20818;-54
2022/01/19 14:19:32;;;;;;;9.40;8.37;;;9.70;99.90;;;;;;5036433;28;20891;-59
2022/01/19 14:22:14;;;;;;;11.53;9.07;;;9.70;99.90;;;;;;4955815;28;20448;-58
2022/01/19 14:24:58;;;;;;;7.43;6.73;;;9.50;99.90;;;;;;4956455;29;20405;-56
2022/01/19 14:27:23;;;;;;;10.37;7.10;;;9.30;99.90;;;;;;5013102;28;20433;-52